Kruzenshtern — UCVK — position and weather

sailwx.info

Track history (hours):
 
Tides and Currents Weather Stations Pressure Air Temp Water Temp Dewpoint Dewpoint Depression Visibility Wind Speed Wind Dir Waves Ship Positions

Kruzenshtern (Russia)

ex-Padua.

Last reported at 2019-Jun-16 15:00 UTC. Time now 2019-Jun-16 15:29 UTC.
Position N 49°27' E 000°49'.

Length 114 m; draft 6.4 m.

Type: Sailing vessel. MMSI: 273243700.

Date/timePositionNaut miles runAvg speedWind from/ knotsBaromVisibWave heightAir tempDewpointWater temp
2019-Jun-16 15:00N 49°27' E 000°49'3 7.0
2019-Jun-16 14:30N 49°24' E 000°51'4 7.4
2019-Jun-16 14:00N 49°27' E 000°51'3 6.2
2019-Jun-16 13:30N 49°28' E 000°56'5 9.1
2019-Jun-16 13:00N 49°23' E 000°55'3 5.0
2019-Jun-16 12:30N 49°21' E 000°57'3 5.5
2019-Jun-16 12:00N 49°23' E 001°01'2 4.9
2019-Jun-16 11:30N 49°25' E 001°01'2 3.3
2019-Jun-16 10:59N 49°27' E 001°03'0 0.0
2019-Jun-16 10:30N 49°27' E 001°03'0 0.0
2019-Jun-16 09:15N 49°27' E 001°03'0 0.0
2019-Jun-16 08:51N 49°27' E 001°03'0 0.0
2019-Jun-16 08:27N 49°27' E 001°03'0 0.0
2019-Jun-16 07:51N 49°27' E 001°03'0 0.0
2019-Jun-16 07:21N 49°27' E 001°03'0 0.0
2019-Jun-16 06:48N 49°27' E 001°03'0 0.0
2019-Jun-16 06:27N 49°27' E 001°03'0 0.0
2019-Jun-16 05:57N 49°27' E 001°03'0 0.0
2019-Jun-16 04:36N 49°27' E 001°03'0 0.0
2019-Jun-16 04:21N 49°27' E 001°03'0 0.0
2019-Jun-16 03:51N 49°27' E 001°03'0 0.0
2019-Jun-16 03:06N 49°27' E 001°03'0 0.0
2019-Jun-16 02:54N 49°27' E 001°03'0 0.0
2019-Jun-16 02:27N 49°27' E 001°03'0 0.0
2019-Jun-16 01:54N 49°27' E 001°03'0 0.0
2019-Jun-16 00:54N 49°27' E 001°03'0 0.0
2019-Jun-16 00:15N 49°27' E 001°03'0 0.0
2019-Jun-15 23:57N 49°27' E 001°03'0 0.0
2019-Jun-15 23:27N 49°27' E 001°03'0 0.0
2019-Jun-15 22:51N 49°27' E 001°03'0 0.0
2019-Jun-15 22:15N 49°27' E 001°03'0 0.0
2019-Jun-15 21:45N 49°27' E 001°03'0 0.0
2019-Jun-15 21:15N 49°27' E 001°03'0 0.0
2019-Jun-15 20:57N 49°27' E 001°03'0 0.0
2019-Jun-15 20:15N 49°27' E 001°03'0 0.0
2019-Jun-15 19:48N 49°27' E 001°03'0 0.0
2019-Jun-15 19:21N 49°27' E 001°03'0 0.0
2019-Jun-15 18:45N 49°27' E 001°03'0 0.0
2019-Jun-15 18:30N 49°27' E 001°03'0 0.0
2019-Jun-15 17:57N 49°27' E 001°03'0 0.0
2019-Jun-15 17:24N 49°27' E 001°03'0 0.0
2019-Jun-15 16:45N 49°27' E 001°03'0 0.0
2019-Jun-15 16:27N 49°27' E 001°03'0 0.0
2019-Jun-15 15:36N 49°27' E 001°03'0 0.0
2019-Jun-15 15:30N 49°27' E 001°03'0 0.0
2019-Jun-15 14:48N 49°27' E 001°03'0 0.0
2019-Jun-15 14:15N 49°27' E 001°03'0 0.0
2019-Jun-15 13:45N 49°27' E 001°03'0 0.0
2019-Jun-15 12:33N 49°27' E 001°03'0 0.0
2019-Jun-15 12:27N 49°27' E 001°03'0 0.0
2019-Jun-15 11:57N 49°27' E 001°03'0 0.0
2019-Jun-15 11:15N 49°27' E 001°03'0 0.0
2019-Jun-15 10:51N 49°27' E 001°03'0 0.0
2019-Jun-15 10:21N 49°27' E 001°03'0 0.0
2019-Jun-15 09:39N 49°27' E 001°03'0 0.0
2019-Jun-15 09:30N 49°27' E 001°03'0 0.0
2019-Jun-15 09:00N 49°27' E 001°03'0 0.0
2019-Jun-15 08:28N 49°27' E 001°03'0 0.0
2019-Jun-15 06:51N 49°27' E 001°03'0 0.0
2019-Jun-15 06:27N 49°27' E 001°03'0 0.0
2019-Jun-15 05:51N 49°27' E 001°03'0 0.0
2019-Jun-15 05:24N 49°27' E 001°03'0 0.0
2019-Jun-15 04:51N 49°27' E 001°03'0 0.0
2019-Jun-15 04:30N 49°27' E 001°03'0 0.0
2019-Jun-15 03:51N 49°27' E 001°03'0 0.0
2019-Jun-15 03:15N 49°27' E 001°03'0 0.0
2019-Jun-15 02:36N 49°27' E 001°03'0 0.0
2019-Jun-15 02:15N 49°27' E 001°03'0 0.0
2019-Jun-15 01:49N 49°27' E 001°03'0 0.0
2019-Jun-15 01:25N 49°27' E 001°03'0 0.0
2019-Jun-15 00:55N 49°27' E 001°03'0 0.0
2019-Jun-15 00:07N 49°27' E 001°03'0 0.0
2019-Jun-14 23:49N 49°27' E 001°03'0 0.0
2019-Jun-14 23:25N 49°27' E 001°03'0 0.0
2019-Jun-14 22:55N 49°27' E 001°03'0 0.0
2019-Jun-14 22:19N 49°27' E 001°03'0 0.0
2019-Jun-14 21:46N 49°27' E 001°03'0 0.0
2019-Jun-14 21:07N 49°27' E 001°03'0 0.0
2019-Jun-14 20:13N 49°27' E 001°03'0 0.0
2019-Jun-14 19:43N 49°27' E 001°03'0 0.0
2019-Jun-14 19:25N 49°27' E 001°03'0 0.0
2019-Jun-14 18:52N 49°27' E 001°03'0 0.0
2019-Jun-14 18:19N 49°27' E 001°03'0 0.0
2019-Jun-14 17:58N 49°27' E 001°03'0 0.0
2019-Jun-14 17:25N 49°27' E 001°03'0 0.0
2019-Jun-14 16:43N 49°27' E 001°03'0 0.0
2019-Jun-14 16:07N 49°27' E 001°03'0 0.0
2019-Jun-14 15:49N 49°27' E 001°03'0 0.0
2019-Jun-14 15:25N 49°27' E 001°03'0 0.0
2019-Jun-14 14:55N 49°27' E 001°03'0 0.0
2019-Jun-14 14:19N 49°27' E 001°03'0 0.0
2019-Jun-14 13:43N 49°27' E 001°03'0 0.0
2019-Jun-14 13:28N 49°27' E 001°03'0 0.0
2019-Jun-14 12:55N 49°27' E 001°03'0 0.0
2019-Jun-14 12:07N 49°27' E 001°03'0 0.0
2019-Jun-14 11:58N 49°27' E 001°03'0 0.0
2019-Jun-14 11:19N 49°27' E 001°03'0 0.0
2019-Jun-14 10:28N 49°27' E 001°03'0 0.0
2019-Jun-14 09:49N 49°27' E 001°03'0 0.0
2019-Jun-14 09:28N 49°27' E 001°03'0 0.0
2019-Jun-14 08:58N 49°27' E 001°03'0 0.0
2019-Jun-14 08:25N 49°27' E 001°03'0 0.0
2019-Jun-14 07:25N 49°27' E 001°03'0 0.0
2019-Jun-14 06:55N 49°27' E 001°03'0 0.0
2019-Jun-14 06:04N 49°27' E 001°03'0 0.0
2019-Jun-14 05:58N 49°27' E 001°03'0 0.0
2019-Jun-14 05:19N 49°27' E 001°03'0 0.0
2019-Jun-14 04:25N 49°27' E 001°03'0 0.0
2019-Jun-14 03:58N 49°27' E 001°03'0 0.0
2019-Jun-14 03:16N 49°27' E 001°03'0 0.0
2019-Jun-14 02:55N 49°27' E 001°03'0 0.0
2019-Jun-14 02:16N 49°27' E 001°03'0 0.0
2019-Jun-14 01:31N 49°27' E 001°03'0 0.0
2019-Jun-14 01:25N 49°27' E 001°03'0 0.0
2019-Jun-14 00:07N 49°27' E 001°03'0 0.0
2019-Jun-13 23:37N 49°27' E 001°03'0 0.0
2019-Jun-13 23:16N 49°27' E 001°03'0 0.0
2019-Jun-13 22:52N 49°27' E 001°03'0 0.0
2019-Jun-13 21:37N 49°27' E 001°03'0 0.0
2019-Jun-13 21:25N 49°27' E 001°03'0 0.0
2019-Jun-13 20:40N 49°27' E 001°03'0 0.0
2019-Jun-13 20:01N 49°27' E 001°03'0 0.1
2019-Jun-13 19:55N 49°27' E 001°03'0 0.0
2019-Jun-13 19:25N 49°27' E 001°03'0 0.0
2019-Jun-13 18:52N 49°27' E 001°03'0 0.0
2019-Jun-13 17:07N 49°27' E 001°03'0 0.0
2019-Jun-13 16:55N 49°27' E 001°03'0 0.0
2019-Jun-13 16:28N 49°27' E 001°03'0 0.0
2019-Jun-13 15:55N 49°27' E 001°03'0 0.0
2019-Jun-13 14:58N 49°27' E 001°03'0 0.0
2019-Jun-13 14:01N 49°27' E 001°03'0 0.0
2019-Jun-13 13:52N 49°27' E 001°03'0 0.0
2019-Jun-13 13:01N 49°27' E 001°03'0 0.0
2019-Jun-13 12:52N 49°27' E 001°03'0 0.0
2019-Jun-13 12:25N 49°27' E 001°03'0 0.0
2019-Jun-13 11:58N 49°27' E 001°03'0 0.0
2019-Jun-13 11:16N 49°27' E 001°03'0 0.0
2019-Jun-13 10:55N 49°27' E 001°03'0 0.0
2019-Jun-13 10:22N 49°27' E 001°03'0 0.0
2019-Jun-13 09:25N 49°27' E 001°03'0 0.0
2019-Jun-13 08:25N 49°27' E 001°03'0 0.0
2019-Jun-13 06:43N 49°27' E 001°03'0 0.0
2019-Jun-13 06:02N 49°27' E 001°03'0 0.0
2019-Jun-13 05:56N 49°27' E 001°03'0 0.0
2019-Jun-13 05:20N 49°27' E 001°03'0 0.0
2019-Jun-13 04:56N 49°27' E 001°03'0 0.0
2019-Jun-13 04:02N 49°27' E 001°03'0 0.0
2019-Jun-13 03:53N 49°27' E 001°03'0 0.0
2019-Jun-13 03:26N 49°27' E 001°03'0 0.0
2019-Jun-13 02:26N 49°27' E 001°03'0 0.0
2019-Jun-13 01:59N 49°27' E 001°03'0 0.0
2019-Jun-13 01:27N 49°27' E 001°03'0 0.0
2019-Jun-13 00:56N 49°27' E 001°03'0 0.0
2019-Jun-13 00:26N 49°27' E 001°03'0 0.0
2019-Jun-12 23:44N 49°27' E 001°03'0 0.0
2019-Jun-12 23:23N 49°27' E 001°03'0 0.0
2019-Jun-12 22:56N 49°27' E 001°03'0 0.0
2019-Jun-12 22:20N 49°27' E 001°03'0 0.0
2019-Jun-12 21:56N 49°27' E 001°03'0 0.0
2019-Jun-12 21:14N 49°27' E 001°03'0 0.0
2019-Jun-12 20:44N 49°27' E 001°03'0 0.0
2019-Jun-12 20:02N 49°27' E 001°03'0 0.0
2019-Jun-12 19:44N 49°27' E 001°03'0 0.0
2019-Jun-12 19:14N 49°27' E 001°03'0 0.0
2019-Jun-12 18:56N 49°27' E 001°03'0 0.0
2019-Jun-12 18:05N 49°27' E 001°03'0 0.0
2019-Jun-12 17:44N 49°27' E 001°03'0 0.0
2019-Jun-12 17:26N 49°27' E 001°03'0 0.0
2019-Jun-12 16:44N 49°27' E 001°03'0 0.0
2019-Jun-12 16:29N 49°27' E 001°03'0 0.0
2019-Jun-12 15:59N 49°27' E 001°03'0 0.0
2019-Jun-12 15:26N 49°27' E 001°03'0 0.0
2019-Jun-12 14:56N 49°27' E 001°03'0 0.0
2019-Jun-12 14:20N 49°27' E 001°03'0 0.0
2019-Jun-12 13:56N 49°27' E 001°03'0 0.0
2019-Jun-12 13:20N 49°27' E 001°03'0 0.0
2019-Jun-12 12:53N 49°27' E 001°03'0 0.0
2019-Jun-12 12:26N 49°27' E 001°03'0 0.0
2019-Jun-12 11:44N 49°27' E 001°03'0 0.0
2019-Jun-12 11:14N 49°27' E 001°03'0 0.0
2019-Jun-12 10:50N 49°27' E 001°03'0 0.0
2019-Jun-12 10:20N 49°27' E 001°03'0 0.0
2019-Jun-12 09:44N 49°27' E 001°03'0 0.0
2019-Jun-12 09:17N 49°27' E 001°03'0 0.0
2019-Jun-12 08:53N 49°27' E 001°03'0 0.0
2019-Jun-12 08:26N 49°27' E 001°03'0 0.0
2019-Jun-12 07:35N 49°27' E 001°03'0 0.0
2019-Jun-12 07:29N 49°27' E 001°03'0 0.0
2019-Jun-12 06:50N 49°27' E 001°03'0 0.0
2019-Jun-12 05:56N 49°27' E 001°03'0 0.0
2019-Jun-12 05:17N 49°27' E 001°03'0 0.0
2019-Jun-12 04:50N 49°27' E 001°03'0 0.0
2019-Jun-12 04:26N 49°27' E 001°03'0 0.0
2019-Jun-12 03:59N 49°27' E 001°03'0 0.0
2019-Jun-12 03:20N 49°27' E 001°03'0 0.0
2019-Jun-12 02:56N 49°27' E 001°03'0 0.0
2019-Jun-12 02:26N 49°27' E 001°03'0 0.0
2019-Jun-12 01:23N 49°27' E 001°03'0 0.0
2019-Jun-12 00:47N 49°27' E 001°03'0 0.0
2019-Jun-12 00:26N 49°27' E 001°03'0 0.0
2019-Jun-11 23:51N 49°27' E 001°03'0 0.0
2019-Jun-11 23:20N 49°27' E 001°03'0 0.0
2019-Jun-11 22:59N 49°27' E 001°03'0 0.0
2019-Jun-11 22:08N 49°27' E 001°03'0 0.0
2019-Jun-11 21:56N 49°27' E 001°03'0 0.0
2019-Jun-11 21:29N 49°27' E 001°03'0 0.0
2019-Jun-11 20:26N 49°27' E 001°03'0 0.0
2019-Jun-11 19:59N 49°27' E 001°03'0 0.0
2019-Jun-11 19:26N 49°27' E 001°03'0 0.0
2019-Jun-11 18:56N 49°27' E 001°03'0 0.0
2019-Jun-11 18:08N 49°27' E 001°03'0 0.0
2019-Jun-11 17:47N 49°27' E 001°03'0 0.0
2019-Jun-11 17:26N 49°27' E 001°03'0 0.0
2019-Jun-11 16:59N 49°27' E 001°03'0 0.0
2019-Jun-11 15:56N 49°27' E 001°03'0 0.0
2019-Jun-11 15:21N 49°27' E 001°03'0 0.0
2019-Jun-11 14:59N 49°27' E 001°03'0 0.0
2019-Jun-11 14:26N 49°27' E 001°03'0 0.0
2019-Jun-11 13:51N 49°27' E 001°03'0 0.0
2019-Jun-11 13:26N 49°27' E 001°03'0 0.0
2019-Jun-11 12:56N 49°27' E 001°03'0 0.0
2019-Jun-11 12:27N 49°27' E 001°03'0 0.0
2019-Jun-11 11:56N 49°27' E 001°03'0 0.0
2019-Jun-11 11:20N 49°27' E 001°03'0 0.0
2019-Jun-11 10:50N 49°27' E 001°03'0 0.0
2019-Jun-11 10:29N 49°27' E 001°03'0 0.0
2019-Jun-11 09:29N 49°27' E 001°03'0 0.0
2019-Jun-11 08:41N 49°27' E 001°03'0 0.0
2019-Jun-11 08:29N 49°27' E 001°03'0 0.0
2019-Jun-11 07:59N 49°27' E 001°03'0 0.0
2019-Jun-11 07:26N 49°27' E 001°03'0 0.0
2019-Jun-11 06:56N 49°27' E 001°03'0 0.0
2019-Jun-11 06:26N 49°27' E 001°03'0 0.0
2019-Jun-11 05:44N 49°27' E 001°03'0 0.0
2019-Jun-11 05:29N 49°27' E 001°03'0 0.0
2019-Jun-11 04:29N 49°27' E 001°03'0 0.0
2019-Jun-11 03:38N 49°27' E 001°03'0 0.0
2019-Jun-11 03:26N 49°27' E 001°03'0 0.0
2019-Jun-11 02:59N 49°27' E 001°03'0 0.0
2019-Jun-11 02:29N 49°27' E 001°03'0 0.0
2019-Jun-11 01:59N 49°27' E 001°03'0 0.0
2019-Jun-11 01:23N 49°27' E 001°03'0 0.0
2019-Jun-11 00:41N 49°27' E 001°03'0 0.0
2019-Jun-11 00:20N 49°27' E 001°03'0 0.0
2019-Jun-10 23:32N 49°27' E 001°03'0 0.0
2019-Jun-10 23:08N 49°27' E 001°03'0 0.0
2019-Jun-10 22:44N 49°27' E 001°03'0 0.0
2019-Jun-10 22:26N 49°27' E 001°03'0 0.0
2019-Jun-10 21:38N 49°27' E 001°03'0 0.0
2019-Jun-10 21:26N 49°27' E 001°03'0 0.0
2019-Jun-10 20:23N 49°27' E 001°03'0 0.0
2019-Jun-10 19:38N 49°27' E 001°03'0 0.0
2019-Jun-10 19:29N 49°27' E 001°03'0 0.0
2019-Jun-10 18:56N 49°27' E 001°03'0 0.0
2019-Jun-10 18:26N 49°27' E 001°03'0 0.0
2019-Jun-10 17:56N 49°27' E 001°03'0 0.0
2019-Jun-10 17:23N 49°27' E 001°03'0 0.0
2019-Jun-10 16:59N 49°27' E 001°03'0 0.0
2019-Jun-10 16:08N 49°27' E 001°03'0 0.0
2019-Jun-10 15:50N 49°27' E 001°03'0 0.0
2019-Jun-10 15:26N 49°27' E 001°03'0 0.0
2019-Jun-10 14:56N 49°27' E 001°03'0 0.0
2019-Jun-10 14:26N 49°27' E 001°03'0 0.0
2019-Jun-10 13:56N 49°27' E 001°03'0 0.0
2019-Jun-10 13:20N 49°27' E 001°03'0 0.0
2019-Jun-10 12:53N 49°27' E 001°03'0 0.0
2019-Jun-10 12:23N 49°27' E 001°03'0 0.0
2019-Jun-10 11:59N 49°27' E 001°03'0 0.0
2019-Jun-10 11:26N 49°27' E 001°03'0 0.0
2019-Jun-10 10:26N 49°27' E 001°03'0 0.0
2019-Jun-10 09:44N 49°27' E 001°03'0 0.0
2019-Jun-10 09:14N 49°27' E 001°03'0 0.0
2019-Jun-10 08:56N 49°27' E 001°03'0 0.0
2019-Jun-10 08:20N 49°27' E 001°03'0 0.0
2019-Jun-10 07:56N 49°27' E 001°03'0 0.0
2019-Jun-10 07:20N 49°27' E 001°03'0 0.0
2019-Jun-10 06:53N 49°27' E 001°03'0 0.0
2019-Jun-10 06:29N 49°27' E 001°03'0 0.0
2019-Jun-10 05:59N 49°27' E 001°03'0 0.0
2019-Jun-10 05:20N 49°27' E 001°03'0 0.0
2019-Jun-10 04:56N 49°27' E 001°03'0 0.0
2019-Jun-10 04:14N 49°27' E 001°03'0 0.0
2019-Jun-10 03:56N 49°27' E 001°03'0 0.0
2019-Jun-10 03:20N 49°27' E 001°03'0 0.0
2019-Jun-10 02:50N 49°27' E 001°03'0 0.0
2019-Jun-10 02:20N 49°27' E 001°03'0 0.0
2019-Jun-10 01:32N 49°27' E 001°03'0 0.0
2019-Jun-10 01:14N 49°27' E 001°03'0 0.0
2019-Jun-10 00:56N 49°27' E 001°03'0 0.0
2019-Jun-09 23:53N 49°27' E 001°03'0 0.0
2019-Jun-09 23:29N 49°27' E 001°03'0 0.0
2019-Jun-09 22:56N 49°27' E 001°03'0 0.0
2019-Jun-09 22:26N 49°27' E 001°03'0 0.0
2019-Jun-09 21:56N 49°27' E 001°03'0 0.0
2019-Jun-09 21:20N 49°27' E 001°03'0 0.0
2019-Jun-09 20:50N 49°27' E 001°03'0 0.0
2019-Jun-09 20:14N 49°27' E 001°03'0 0.0
2019-Jun-09 19:38N 49°27' E 001°03'0 0.0
2019-Jun-09 19:17N 49°27' E 001°03'0 0.0
2019-Jun-09 18:38N 49°27' E 001°03'0 0.0
2019-Jun-09 18:23N 49°27' E 001°03'0 0.0
2019-Jun-09 17:56N 49°27' E 001°03'0 0.0
2019-Jun-09 17:26N 49°27' E 001°03'0 0.0
2019-Jun-09 16:50N 49°27' E 001°03'0 0.0
2019-Jun-09 16:29N 49°27' E 001°03'0 0.0
2019-Jun-09 15:56N 49°27' E 001°03'0 0.0
2019-Jun-09 15:23N 49°27' E 001°03'0 0.0
2019-Jun-09 14:50N 49°27' E 001°03'0 0.0
2019-Jun-09 14:17N 49°27' E 001°03'0 0.0
2019-Jun-09 13:56N 49°27' E 001°03'0 0.0
2019-Jun-09 13:26N 49°27' E 001°03'0 0.0
2019-Jun-09 12:59N 49°27' E 001°03'0 0.0
2019-Jun-09 12:23N 49°27' E 001°03'0 0.0
2019-Jun-09 11:02N 49°27' E 001°03'0 0.0
2019-Jun-09 10:41N 49°27' E 001°03'0 0.0
2019-Jun-09 10:20N 49°27' E 001°03'0 0.0
2019-Jun-09 09:08N 49°27' E 001°03'0 0.0
2019-Jun-09 08:56N 49°27' E 001°03'0 0.0
2019-Jun-09 08:26N 49°27' E 001°03'0 0.0
2019-Jun-09 07:26N 49°27' E 001°03'0 0.0
2019-Jun-09 06:56N 49°27' E 001°03'0 0.0
2019-Jun-09 06:20N 49°27' E 001°03'0 0.0
2019-Jun-09 05:56N 49°27' E 001°03'0 0.0
2019-Jun-09 05:20N 49°27' E 001°03'0 0.0
2019-Jun-09 04:56N 49°27' E 001°03'0 0.0
2019-Jun-09 03:47N 49°27' E 001°03'0 0.0
2019-Jun-09 03:17N 49°27' E 001°03'0 0.0
2019-Jun-09 02:56N 49°27' E 001°03'0 0.0
2019-Jun-09 02:20N 49°27' E 001°03'0 0.0
2019-Jun-09 01:44N 49°27' E 001°03'0 0.0
2019-Jun-09 01:26N 49°27' E 001°03'0 0.0
2019-Jun-09 00:38N 49°27' E 001°03'0 0.0
2019-Jun-09 00:26N 49°27' E 001°03'0 0.0
2019-Jun-08 23:50N 49°27' E 001°03'0 0.0
2019-Jun-08 23:20N 49°27' E 001°03'0 0.0
2019-Jun-08 22:53N 49°27' E 001°03'0 0.0
2019-Jun-08 22:26N 49°27' E 001°03'0 0.0
2019-Jun-08 21:32N 49°27' E 001°03'0 0.0
2019-Jun-08 21:29N 49°27' E 001°03'0 0.0
2019-Jun-08 20:56N 49°27' E 001°03'0 0.0
2019-Jun-08 20:26N 49°27' E 001°03'0 0.0
2019-Jun-08 19:44N 49°27' E 001°03'0 0.0
2019-Jun-08 19:14N 49°27' E 001°03'0 0.0
2019-Jun-08 18:56N 49°27' E 001°03'0 0.0
2019-Jun-08 18:11N 49°27' E 001°03'0 0.0
2019-Jun-08 17:47N 49°27' E 001°03'0 0.0
2019-Jun-08 17:20N 49°27' E 001°03'0 0.0
2019-Jun-08 16:56N 49°27' E 001°03'0 0.0
2019-Jun-08 16:26N 49°27' E 001°03'0 0.0
2019-Jun-08 15:50N 49°27' E 001°03'0 0.0
2019-Jun-08 15:20N 49°27' E 001°03'0 0.0
2019-Jun-08 14:50N 49°27' E 001°03'0 0.0
2019-Jun-08 14:20N 49°27' E 001°03'0 0.0
2019-Jun-08 13:44N 49°27' E 001°03'0 0.0
2019-Jun-08 13:23N 49°27' E 001°03'0 0.0
2019-Jun-08 12:50N 49°27' E 001°03'0 0.0
2019-Jun-08 12:29N 49°27' E 001°03'0 0.0
2019-Jun-08 11:56N 49°27' E 001°03'0 0.0
2019-Jun-08 11:14N 49°27' E 001°03'0 0.0
2019-Jun-08 10:59N 49°27' E 001°03'0 0.0
2019-Jun-08 10:26N 49°27' E 001°03'0 0.0
2019-Jun-08 09:59N 49°27' E 001°03'0 0.0
2019-Jun-08 09:20N 49°27' E 001°03'0 0.0
2019-Jun-08 08:38N 49°27' E 001°03'0 0.0
2019-Jun-08 08:29N 49°27' E 001°03'0 0.0
2019-Jun-08 07:56N 49°27' E 001°03'0 0.0
2019-Jun-08 07:14N 49°27' E 001°03'0 0.0
2019-Jun-08 06:47N 49°27' E 001°03'0 0.0
2019-Jun-08 05:56N 49°27' E 001°03'0 0.0
2019-Jun-08 05:26N 49°27' E 001°03'0 0.0
2019-Jun-08 04:50N 49°27' E 001°03'0 0.0
2019-Jun-08 04:23N 49°27' E 001°03'0 0.0
2019-Jun-08 03:11N 49°27' E 001°03'0 0.0
2019-Jun-08 03:00N 49°27' E 001°03'0 0.0
2019-Jun-08 02:02N 49°27' E 001°03'0 0.0
2019-Jun-08 01:53N 49°27' E 001°03'0 0.0
2019-Jun-08 01:26N 49°27' E 001°03'0 0.0
2019-Jun-08 00:44N 49°27' E 001°03'0 0.0
2019-Jun-08 00:20N 49°27' E 001°03'0 0.0
2019-Jun-07 23:56N 49°27' E 001°03'0 0.0
2019-Jun-07 23:20N 49°27' E 001°03'0 0.0
2019-Jun-07 22:53N 49°27' E 001°03'0 0.0
2019-Jun-07 22:20N 49°27' E 001°03'0 0.0
2019-Jun-07 21:59N 49°27' E 001°03'0 0.0
2019-Jun-07 21:17N 49°27' E 001°03'0 0.0
2019-Jun-07 20:44N 49°27' E 001°03'0 0.0
2019-Jun-07 20:08N 49°27' E 001°03'0 0.0
2019-Jun-07 19:56N 49°27' E 001°03'0 0.0
2019-Jun-07 19:29N 49°27' E 001°03'0 0.0
2019-Jun-07 18:53N 49°27' E 001°03'0 0.0
2019-Jun-07 18:20N 49°27' E 001°03'0 0.0
2019-Jun-07 17:11N 49°27' E 001°03'0 0.0
2019-Jun-07 16:56N 49°27' E 001°03'0 0.0
2019-Jun-07 16:14N 49°27' E 001°03'0 0.0
2019-Jun-07 15:56N 49°27' E 001°03'0 0.0
2019-Jun-07 15:20N 49°27' E 001°03'0 0.0
2019-Jun-07 14:09N 49°27' E 001°03'0 0.0
2019-Jun-07 13:44N 49°27' E 001°03'0 0.0
2019-Jun-07 13:23N 49°27' E 001°03'0 0.0
2019-Jun-07 12:57N 49°27' E 001°03'0 0.0
2019-Jun-07 12:18N 49°27' E 001°03'0 0.0
2019-Jun-07 11:40N 49°27' E 001°03'0 0.0
2019-Jun-07 11:30N 49°27' E 001°03'0 0.0
2019-Jun-07 11:00N 49°27' E 001°03'0 0.0
2019-Jun-07 10:25N 49°27' E 001°03'0 0.0
2019-Jun-07 09:53N 49°27' E 001°03'0 0.0
2019-Jun-07 09:30N 49°27' E 001°03'0 0.0
2019-Jun-07 08:22N 49°27' E 001°03'0 0.0
2019-Jun-07 07:54N 49°27' E 001°03'0 0.0
2019-Jun-07 07:29N 49°27' E 001°03'0 0.0
2019-Jun-07 06:54N 49°27' E 001°03'0 0.0
2019-Jun-07 06:17N 49°27' E 001°03'0 0.0
2019-Jun-07 05:59N 49°27' E 001°03'0 0.0
2019-Jun-07 05:29N 49°27' E 001°03'0 0.0
2019-Jun-07 04:44N 49°27' E 001°03'0 0.0
2019-Jun-07 04:29N 49°27' E 001°03'0 0.0
2019-Jun-07 03:59N 49°27' E 001°03'0 0.0
2019-Jun-07 03:19N 49°27' E 001°03'0 0.0
2019-Jun-07 02:48N 49°27' E 001°03'0 0.0
2019-Jun-07 02:23N 49°27' E 001°03'0 0.0
2019-Jun-07 01:48N 49°27' E 001°03'0 0.0
2019-Jun-07 01:28N 49°27' E 001°03'0 0.0
2019-Jun-07 00:51N 49°27' E 001°03'0 0.0
2019-Jun-07 00:08N 49°27' E 001°03'0 0.0
2019-Jun-06 23:43N 49°27' E 001°03'0 0.0
2019-Jun-06 22:56N 49°27' E 001°03'0 0.0
2019-Jun-06 22:28N 49°27' E 001°03'0 0.0
2019-Jun-06 21:12N 49°27' E 001°03'0 0.0
2019-Jun-06 20:52N 49°27' E 001°03'0 0.0
2019-Jun-06 20:17N 49°27' E 001°03'0 0.0
2019-Jun-06 19:57N 49°27' E 001°03'0 0.0
2019-Jun-06 18:57N 49°27' E 001°03'0 0.0
2019-Jun-06 18:12N 49°27' E 001°03'0 0.0
2019-Jun-06 17:22N 49°27' E 001°03'0 0.0
2019-Jun-06 16:01N 49°27' E 001°03'0 0.0
2019-Jun-06 15:46N 49°27' E 001°03'0 0.0
2019-Jun-06 15:29N 49°27' E 001°03'  
Track history (hours):
 
Tides and Currents Weather Stations Pressure Air Temp Water Temp Dewpoint Dewpoint Depression Visibility Wind Speed Wind Dir Waves Ship Positions

Kruzenshtern (Russia)

ex-Padua.

Last reported at 2019-Jun-16 15:00 UTC. Time now 2019-Jun-16 15:29 UTC.
Position N 49°27' E 000°49'.

Length 114 m; draft 6.4 m.

Type: Sailing vessel. MMSI: 273243700.

Date/timePositionNaut miles runAvg speedWind from/ knotsBaromVisibWave heightAir tempDewpointWater temp
2019-Jun-16 15:00N 49°27' E 000°49'3 7.0
2019-Jun-16 14:30N 49°24' E 000°51'4 7.4
2019-Jun-16 14:00N 49°27' E 000°51'3 6.2
2019-Jun-16 13:30N 49°28' E 000°56'5 9.1
2019-Jun-16 13:00N 49°23' E 000°55'3 5.0
2019-Jun-16 12:30N 49°21' E 000°57'3 5.5
2019-Jun-16 12:00N 49°23' E 001°01'2 4.9
2019-Jun-16 11:30N 49°25' E 001°01'2 3.3
2019-Jun-16 10:59N 49°27' E 001°03'0 0.0
2019-Jun-16 10:30N 49°27' E 001°03'0 0.0
2019-Jun-16 09:15N 49°27' E 001°03'0 0.0
2019-Jun-16 08:51N 49°27' E 001°03'0 0.0
2019-Jun-16 08:27N 49°27' E 001°03'0 0.0
2019-Jun-16 07:51N 49°27' E 001°03'0 0.0
2019-Jun-16 07:21N 49°27' E 001°03'0 0.0
2019-Jun-16 06:48N 49°27' E 001°03'0 0.0
2019-Jun-16 06:27N 49°27' E 001°03'0 0.0
2019-Jun-16 05:57N 49°27' E 001°03'0 0.0
2019-Jun-16 04:36N 49°27' E 001°03'0 0.0
2019-Jun-16 04:21N 49°27' E 001°03'0 0.0
2019-Jun-16 03:51N 49°27' E 001°03'0 0.0
2019-Jun-16 03:06N 49°27' E 001°03'0 0.0
2019-Jun-16 02:54N 49°27' E 001°03'0 0.0
2019-Jun-16 02:27N 49°27' E 001°03'0 0.0
2019-Jun-16 01:54N 49°27' E 001°03'0 0.0
2019-Jun-16 00:54N 49°27' E 001°03'0 0.0
2019-Jun-16 00:15N 49°27' E 001°03'0 0.0
2019-Jun-15 23:57N 49°27' E 001°03'0 0.0
2019-Jun-15 23:27N 49°27' E 001°03'0 0.0
2019-Jun-15 22:51N 49°27' E 001°03'0 0.0
2019-Jun-15 22:15N 49°27' E 001°03'0 0.0
2019-Jun-15 21:45N 49°27' E 001°03'0 0.0
2019-Jun-15 21:15N 49°27' E 001°03'0 0.0
2019-Jun-15 20:57N 49°27' E 001°03'0 0.0
2019-Jun-15 20:15N 49°27' E 001°03'0 0.0
2019-Jun-15 19:48N 49°27' E 001°03'0 0.0
2019-Jun-15 19:21N 49°27' E 001°03'0 0.0
2019-Jun-15 18:45N 49°27' E 001°03'0 0.0
2019-Jun-15 18:30N 49°27' E 001°03'0 0.0
2019-Jun-15 17:57N 49°27' E 001°03'0 0.0
2019-Jun-15 17:24N 49°27' E 001°03'0 0.0
2019-Jun-15 16:45N 49°27' E 001°03'0 0.0
2019-Jun-15 16:27N 49°27' E 001°03'0 0.0
2019-Jun-15 15:36N 49°27' E 001°03'0 0.0
2019-Jun-15 15:30N 49°27' E 001°03'0 0.0
2019-Jun-15 14:48N 49°27' E 001°03'0 0.0
2019-Jun-15 14:15N 49°27' E 001°03'0 0.0
2019-Jun-15 13:45N 49°27' E 001°03'0 0.0
2019-Jun-15 12:33N 49°27' E 001°03'0 0.0
2019-Jun-15 12:27N 49°27' E 001°03'0 0.0
2019-Jun-15 11:57N 49°27' E 001°03'0 0.0
2019-Jun-15 11:15N 49°27' E 001°03'0 0.0
2019-Jun-15 10:51N 49°27' E 001°03'0 0.0
2019-Jun-15 10:21N 49°27' E 001°03'0 0.0
2019-Jun-15 09:39N 49°27' E 001°03'0 0.0
2019-Jun-15 09:30N 49°27' E 001°03'0 0.0
2019-Jun-15 09:00N 49°27' E 001°03'0 0.0
2019-Jun-15 08:28N 49°27' E 001°03'0 0.0
2019-Jun-15 06:51N 49°27' E 001°03'0 0.0
2019-Jun-15 06:27N 49°27' E 001°03'0 0.0
2019-Jun-15 05:51N 49°27' E 001°03'0 0.0
2019-Jun-15 05:24N 49°27' E 001°03'0 0.0
2019-Jun-15 04:51N 49°27' E 001°03'0 0.0
2019-Jun-15 04:30N 49°27' E 001°03'0 0.0
2019-Jun-15 03:51N 49°27' E 001°03'0 0.0
2019-Jun-15 03:15N 49°27' E 001°03'0 0.0
2019-Jun-15 02:36N 49°27' E 001°03'0 0.0
2019-Jun-15 02:15N 49°27' E 001°03'0 0.0
2019-Jun-15 01:49N 49°27' E 001°03'0 0.0
2019-Jun-15 01:25N 49°27' E 001°03'0 0.0
2019-Jun-15 00:55N 49°27' E 001°03'0 0.0
2019-Jun-15 00:07N 49°27' E 001°03'0 0.0
2019-Jun-14 23:49N 49°27' E 001°03'0 0.0
2019-Jun-14 23:25N 49°27' E 001°03'0 0.0
2019-Jun-14 22:55N 49°27' E 001°03'0 0.0
2019-Jun-14 22:19N 49°27' E 001°03'0 0.0
2019-Jun-14 21:46N 49°27' E 001°03'0 0.0
2019-Jun-14 21:07N 49°27' E 001°03'0 0.0
2019-Jun-14 20:13N 49°27' E 001°03'0 0.0
2019-Jun-14 19:43N 49°27' E 001°03'0 0.0
2019-Jun-14 19:25N 49°27' E 001°03'0 0.0
2019-Jun-14 18:52N 49°27' E 001°03'0 0.0
2019-Jun-14 18:19N 49°27' E 001°03'0 0.0
2019-Jun-14 17:58N 49°27' E 001°03'0 0.0
2019-Jun-14 17:25N 49°27' E 001°03'0 0.0
2019-Jun-14 16:43N 49°27' E 001°03'0 0.0
2019-Jun-14 16:07N 49°27' E 001°03'0 0.0
2019-Jun-14 15:49N 49°27' E 001°03'0 0.0
2019-Jun-14 15:25N 49°27' E 001°03'0 0.0
2019-Jun-14 14:55N 49°27' E 001°03'0 0.0
2019-Jun-14 14:19N 49°27' E 001°03'0 0.0
2019-Jun-14 13:43N 49°27' E 001°03'0 0.0
2019-Jun-14 13:28N 49°27' E 001°03'0 0.0
2019-Jun-14 12:55N 49°27' E 001°03'0 0.0
2019-Jun-14 12:07N 49°27' E 001°03'0 0.0
2019-Jun-14 11:58N 49°27' E 001°03'0 0.0
2019-Jun-14 11:19N 49°27' E 001°03'0 0.0
2019-Jun-14 10:28N 49°27' E 001°03'0 0.0
2019-Jun-14 09:49N 49°27' E 001°03'0 0.0
2019-Jun-14 09:28N 49°27' E 001°03'0 0.0
2019-Jun-14 08:58N 49°27' E 001°03'0 0.0
2019-Jun-14 08:25N 49°27' E 001°03'0 0.0
2019-Jun-14 07:25N 49°27' E 001°03'0 0.0
2019-Jun-14 06:55N 49°27' E 001°03'0 0.0
2019-Jun-14 06:04N 49°27' E 001°03'0 0.0
2019-Jun-14 05:58N 49°27' E 001°03'0 0.0
2019-Jun-14 05:19N 49°27' E 001°03'0 0.0
2019-Jun-14 04:25N 49°27' E 001°03'0 0.0
2019-Jun-14 03:58N 49°27' E 001°03'0 0.0
2019-Jun-14 03:16N 49°27' E 001°03'0 0.0
2019-Jun-14 02:55N 49°27' E 001°03'0 0.0
2019-Jun-14 02:16N 49°27' E 001°03'0 0.0
2019-Jun-14 01:31N 49°27' E 001°03'0 0.0
2019-Jun-14 01:25N 49°27' E 001°03'0 0.0
2019-Jun-14 00:07N 49°27' E 001°03'0 0.0
2019-Jun-13 23:37N 49°27' E 001°03'0 0.0
2019-Jun-13 23:16N 49°27' E 001°03'0 0.0
2019-Jun-13 22:52N 49°27' E 001°03'0 0.0
2019-Jun-13 21:37N 49°27' E 001°03'0 0.0
2019-Jun-13 21:25N 49°27' E 001°03'0 0.0
2019-Jun-13 20:40N 49°27' E 001°03'0 0.0
2019-Jun-13 20:01N 49°27' E 001°03'0 0.1
2019-Jun-13 19:55N 49°27' E 001°03'0 0.0
2019-Jun-13 19:25N 49°27' E 001°03'0 0.0
2019-Jun-13 18:52N 49°27' E 001°03'0 0.0
2019-Jun-13 17:07N 49°27' E 001°03'0 0.0
2019-Jun-13 16:55N 49°27' E 001°03'0 0.0
2019-Jun-13 16:28N 49°27' E 001°03'0 0.0
2019-Jun-13 15:55N 49°27' E 001°03'0 0.0
2019-Jun-13 14:58N 49°27' E 001°03'0 0.0
2019-Jun-13 14:01N 49°27' E 001°03'0 0.0
2019-Jun-13 13:52N 49°27' E 001°03'0 0.0
2019-Jun-13 13:01N 49°27' E 001°03'0 0.0
2019-Jun-13 12:52N 49°27' E 001°03'0 0.0
2019-Jun-13 12:25N 49°27' E 001°03'0 0.0
2019-Jun-13 11:58N 49°27' E 001°03'0 0.0
2019-Jun-13 11:16N 49°27' E 001°03'0 0.0
2019-Jun-13 10:55N 49°27' E 001°03'0 0.0
2019-Jun-13 10:22N 49°27' E 001°03'0 0.0
2019-Jun-13 09:25N 49°27' E 001°03'0 0.0
2019-Jun-13 08:25N 49°27' E 001°03'0 0.0
2019-Jun-13 06:43N 49°27' E 001°03'0 0.0
2019-Jun-13 06:02N 49°27' E 001°03'0 0.0
2019-Jun-13 05:56N 49°27' E 001°03'0 0.0
2019-Jun-13 05:20N 49°27' E 001°03'0 0.0
2019-Jun-13 04:56N 49°27' E 001°03'0 0.0
2019-Jun-13 04:02N 49°27' E 001°03'0 0.0
2019-Jun-13 03:53N 49°27' E 001°03'0 0.0
2019-Jun-13 03:26N 49°27' E 001°03'0 0.0
2019-Jun-13 02:26N 49°27' E 001°03'0 0.0
2019-Jun-13 01:59N 49°27' E 001°03'0 0.0
2019-Jun-13 01:27N 49°27' E 001°03'0 0.0
2019-Jun-13 00:56N 49°27' E 001°03'0 0.0
2019-Jun-13 00:26N 49°27' E 001°03'0 0.0
2019-Jun-12 23:44N 49°27' E 001°03'0 0.0
2019-Jun-12 23:23N 49°27' E 001°03'0 0.0
2019-Jun-12 22:56N 49°27' E 001°03'0 0.0
2019-Jun-12 22:20N 49°27' E 001°03'0 0.0
2019-Jun-12 21:56N 49°27' E 001°03'0 0.0
2019-Jun-12 21:14N 49°27' E 001°03'0 0.0
2019-Jun-12 20:44N 49°27' E 001°03'0 0.0
2019-Jun-12 20:02N 49°27' E 001°03'0 0.0
2019-Jun-12 19:44N 49°27' E 001°03'0 0.0
2019-Jun-12 19:14N 49°27' E 001°03'0 0.0
2019-Jun-12 18:56N 49°27' E 001°03'0 0.0
2019-Jun-12 18:05N 49°27' E 001°03'0 0.0
2019-Jun-12 17:44N 49°27' E 001°03'0 0.0
2019-Jun-12 17:26N 49°27' E 001°03'0 0.0
2019-Jun-12 16:44N 49°27' E 001°03'0 0.0
2019-Jun-12 16:29N 49°27' E 001°03'0 0.0
2019-Jun-12 15:59N 49°27' E 001°03'0 0.0
2019-Jun-12 15:26N 49°27' E 001°03'0 0.0
2019-Jun-12 14:56N 49°27' E 001°03'0 0.0
2019-Jun-12 14:20N 49°27' E 001°03'0 0.0
2019-Jun-12 13:56N 49°27' E 001°03'0 0.0
2019-Jun-12 13:20N 49°27' E 001°03'0 0.0
2019-Jun-12 12:53N 49°27' E 001°03'0 0.0
2019-Jun-12 12:26N 49°27' E 001°03'0 0.0
2019-Jun-12 11:44N 49°27' E 001°03'0 0.0
2019-Jun-12 11:14N 49°27' E 001°03'0 0.0
2019-Jun-12 10:50N 49°27' E 001°03'0 0.0
2019-Jun-12 10:20N 49°27' E 001°03'0 0.0
2019-Jun-12 09:44N 49°27' E 001°03'0 0.0
2019-Jun-12 09:17N 49°27' E 001°03'0 0.0
2019-Jun-12 08:53N 49°27' E 001°03'0 0.0
2019-Jun-12 08:26N 49°27' E 001°03'0 0.0
2019-Jun-12 07:35N 49°27' E 001°03'0 0.0
2019-Jun-12 07:29N 49°27' E 001°03'0 0.0
2019-Jun-12 06:50N 49°27' E 001°03'0 0.0
2019-Jun-12 05:56N 49°27' E 001°03'0 0.0
2019-Jun-12 05:17N 49°27' E 001°03'0 0.0
2019-Jun-12 04:50N 49°27' E 001°03'0 0.0
2019-Jun-12 04:26N 49°27' E 001°03'0 0.0
2019-Jun-12 03:59N 49°27' E 001°03'0 0.0
2019-Jun-12 03:20N 49°27' E 001°03'0 0.0
2019-Jun-12 02:56N 49°27' E 001°03'0 0.0
2019-Jun-12 02:26N 49°27' E 001°03'0 0.0
2019-Jun-12 01:23N 49°27' E 001°03'0 0.0
2019-Jun-12 00:47N 49°27' E 001°03'0 0.0
2019-Jun-12 00:26N 49°27' E 001°03'0 0.0
2019-Jun-11 23:51N 49°27' E 001°03'0 0.0
2019-Jun-11 23:20N 49°27' E 001°03'0 0.0
2019-Jun-11 22:59N 49°27' E 001°03'0 0.0
2019-Jun-11 22:08N 49°27' E 001°03'0 0.0
2019-Jun-11 21:56N 49°27' E 001°03'0 0.0
2019-Jun-11 21:29N 49°27' E 001°03'0 0.0
2019-Jun-11 20:26N 49°27' E 001°03'0 0.0
2019-Jun-11 19:59N 49°27' E 001°03'0 0.0
2019-Jun-11 19:26N 49°27' E 001°03'0 0.0
2019-Jun-11 18:56N 49°27' E 001°03'0 0.0
2019-Jun-11 18:08N 49°27' E 001°03'0 0.0
2019-Jun-11 17:47N 49°27' E 001°03'0 0.0
2019-Jun-11 17:26N 49°27' E 001°03'0 0.0
2019-Jun-11 16:59N 49°27' E 001°03'0 0.0
2019-Jun-11 15:56N 49°27' E 001°03'0 0.0
2019-Jun-11 15:21N 49°27' E 001°03'0 0.0
2019-Jun-11 14:59N 49°27' E 001°03'0 0.0
2019-Jun-11 14:26N 49°27' E 001°03'0 0.0
2019-Jun-11 13:51N 49°27' E 001°03'0 0.0
2019-Jun-11 13:26N 49°27' E 001°03'0 0.0
2019-Jun-11 12:56N 49°27' E 001°03'0 0.0
2019-Jun-11 12:27N 49°27' E 001°03'0 0.0
2019-Jun-11 11:56N 49°27' E 001°03'0 0.0
2019-Jun-11 11:20N 49°27' E 001°03'0 0.0
2019-Jun-11 10:50N 49°27' E 001°03'0 0.0
2019-Jun-11 10:29N 49°27' E 001°03'0 0.0
2019-Jun-11 09:29N 49°27' E 001°03'0 0.0
2019-Jun-11 08:41N 49°27' E 001°03'0 0.0
2019-Jun-11 08:29N 49°27' E 001°03'0 0.0
2019-Jun-11 07:59N 49°27' E 001°03'0 0.0
2019-Jun-11 07:26N 49°27' E 001°03'0 0.0
2019-Jun-11 06:56N 49°27' E 001°03'0 0.0
2019-Jun-11 06:26N 49°27' E 001°03'0 0.0
2019-Jun-11 05:44N 49°27' E 001°03'0 0.0
2019-Jun-11 05:29N 49°27' E 001°03'0 0.0
2019-Jun-11 04:29N 49°27' E 001°03'0 0.0
2019-Jun-11 03:38N 49°27' E 001°03'0 0.0
2019-Jun-11 03:26N 49°27' E 001°03'0 0.0
2019-Jun-11 02:59N 49°27' E 001°03'0 0.0
2019-Jun-11 02:29N 49°27' E 001°03'0 0.0
2019-Jun-11 01:59N 49°27' E 001°03'0 0.0
2019-Jun-11 01:23N 49°27' E 001°03'0 0.0
2019-Jun-11 00:41N 49°27' E 001°03'0 0.0
2019-Jun-11 00:20N 49°27' E 001°03'0 0.0
2019-Jun-10 23:32N 49°27' E 001°03'0 0.0
2019-Jun-10 23:08N 49°27' E 001°03'0 0.0
2019-Jun-10 22:44N 49°27' E 001°03'0 0.0
2019-Jun-10 22:26N 49°27' E 001°03'0 0.0
2019-Jun-10 21:38N 49°27' E 001°03'0 0.0
2019-Jun-10 21:26N 49°27' E 001°03'0 0.0
2019-Jun-10 20:23N 49°27' E 001°03'0 0.0
2019-Jun-10 19:38N 49°27' E 001°03'0 0.0
2019-Jun-10 19:29N 49°27' E 001°03'0 0.0
2019-Jun-10 18:56N 49°27' E 001°03'0 0.0
2019-Jun-10 18:26N 49°27' E 001°03'0 0.0
2019-Jun-10 17:56N 49°27' E 001°03'0 0.0
2019-Jun-10 17:23N 49°27' E 001°03'0 0.0
2019-Jun-10 16:59N 49°27' E 001°03'0 0.0
2019-Jun-10 16:08N 49°27' E 001°03'0 0.0
2019-Jun-10 15:50N 49°27' E 001°03'0 0.0
2019-Jun-10 15:26N 49°27' E 001°03'0 0.0
2019-Jun-10 14:56N 49°27' E 001°03'0 0.0
2019-Jun-10 14:26N 49°27' E 001°03'0 0.0
2019-Jun-10 13:56N 49°27' E 001°03'0 0.0
2019-Jun-10 13:20N 49°27' E 001°03'0 0.0
2019-Jun-10 12:53N 49°27' E 001°03'0 0.0
2019-Jun-10 12:23N 49°27' E 001°03'0 0.0
2019-Jun-10 11:59N 49°27' E 001°03'0 0.0
2019-Jun-10 11:26N 49°27' E 001°03'0 0.0
2019-Jun-10 10:26N 49°27' E 001°03'0 0.0
2019-Jun-10 09:44N 49°27' E 001°03'0 0.0
2019-Jun-10 09:14N 49°27' E 001°03'0 0.0
2019-Jun-10 08:56N 49°27' E 001°03'0 0.0
2019-Jun-10 08:20N 49°27' E 001°03'0 0.0
2019-Jun-10 07:56N 49°27' E 001°03'0 0.0
2019-Jun-10 07:20N 49°27' E 001°03'0 0.0
2019-Jun-10 06:53N 49°27' E 001°03'0 0.0
2019-Jun-10 06:29N 49°27' E 001°03'0 0.0
2019-Jun-10 05:59N 49°27' E 001°03'0 0.0
2019-Jun-10 05:20N 49°27' E 001°03'0 0.0
2019-Jun-10 04:56N 49°27' E 001°03'0 0.0
2019-Jun-10 04:14N 49°27' E 001°03'0 0.0
2019-Jun-10 03:56N 49°27' E 001°03'0 0.0
2019-Jun-10 03:20N 49°27' E 001°03'0 0.0
2019-Jun-10 02:50N 49°27' E 001°03'0 0.0
2019-Jun-10 02:20N 49°27' E 001°03'0 0.0
2019-Jun-10 01:32N 49°27' E 001°03'0 0.0
2019-Jun-10 01:14N 49°27' E 001°03'0 0.0
2019-Jun-10 00:56N 49°27' E 001°03'0 0.0
2019-Jun-09 23:53N 49°27' E 001°03'0 0.0
2019-Jun-09 23:29N 49°27' E 001°03'0 0.0
2019-Jun-09 22:56N 49°27' E 001°03'0 0.0
2019-Jun-09 22:26N 49°27' E 001°03'0 0.0
2019-Jun-09 21:56N 49°27' E 001°03'0 0.0
2019-Jun-09 21:20N 49°27' E 001°03'0 0.0
2019-Jun-09 20:50N 49°27' E 001°03'0 0.0
2019-Jun-09 20:14N 49°27' E 001°03'0 0.0
2019-Jun-09 19:38N 49°27' E 001°03'0 0.0
2019-Jun-09 19:17N 49°27' E 001°03'0 0.0
2019-Jun-09 18:38N 49°27' E 001°03'0 0.0
2019-Jun-09 18:23N 49°27' E 001°03'0 0.0
2019-Jun-09 17:56N 49°27' E 001°03'0 0.0
2019-Jun-09 17:26N 49°27' E 001°03'0 0.0
2019-Jun-09 16:50N 49°27' E 001°03'0 0.0
2019-Jun-09 16:29N 49°27' E 001°03'0 0.0
2019-Jun-09 15:56N 49°27' E 001°03'0 0.0
2019-Jun-09 15:23N 49°27' E 001°03'0 0.0
2019-Jun-09 14:50N 49°27' E 001°03'0 0.0
2019-Jun-09 14:17N 49°27' E 001°03'0 0.0
2019-Jun-09 13:56N 49°27' E 001°03'0 0.0
2019-Jun-09 13:26N 49°27' E 001°03'0 0.0
2019-Jun-09 12:59N 49°27' E 001°03'0 0.0
2019-Jun-09 12:23N 49°27' E 001°03'0 0.0
2019-Jun-09 11:02N 49°27' E 001°03'0 0.0
2019-Jun-09 10:41N 49°27' E 001°03'0 0.0
2019-Jun-09 10:20N 49°27' E 001°03'0 0.0
2019-Jun-09 09:08N 49°27' E 001°03'0 0.0
2019-Jun-09 08:56N 49°27' E 001°03'0 0.0
2019-Jun-09 08:26N 49°27' E 001°03'0 0.0
2019-Jun-09 07:26N 49°27' E 001°03'0 0.0
2019-Jun-09 06:56N 49°27' E 001°03'0 0.0
2019-Jun-09 06:20N 49°27' E 001°03'0 0.0
2019-Jun-09 05:56N 49°27' E 001°03'0 0.0
2019-Jun-09 05:20N 49°27' E 001°03'0 0.0
2019-Jun-09 04:56N 49°27' E 001°03'0 0.0
2019-Jun-09 03:47N 49°27' E 001°03'0 0.0
2019-Jun-09 03:17N 49°27' E 001°03'0 0.0
2019-Jun-09 02:56N 49°27' E 001°03'0 0.0
2019-Jun-09 02:20N 49°27' E 001°03'0 0.0
2019-Jun-09 01:44N 49°27' E 001°03'0 0.0
2019-Jun-09 01:26N 49°27' E 001°03'0 0.0
2019-Jun-09 00:38N 49°27' E 001°03'0 0.0
2019-Jun-09 00:26N 49°27' E 001°03'0 0.0
2019-Jun-08 23:50N 49°27' E 001°03'0 0.0
2019-Jun-08 23:20N 49°27' E 001°03'0 0.0
2019-Jun-08 22:53N 49°27' E 001°03'0 0.0
2019-Jun-08 22:26N 49°27' E 001°03'0 0.0
2019-Jun-08 21:32N 49°27' E 001°03'0 0.0
2019-Jun-08 21:29N 49°27' E 001°03'0 0.0
2019-Jun-08 20:56N 49°27' E 001°03'0 0.0
2019-Jun-08 20:26N 49°27' E 001°03'0 0.0
2019-Jun-08 19:44N 49°27' E 001°03'0 0.0
2019-Jun-08 19:14N 49°27' E 001°03'0 0.0
2019-Jun-08 18:56N 49°27' E 001°03'0 0.0
2019-Jun-08 18:11N 49°27' E 001°03'0 0.0
2019-Jun-08 17:47N 49°27' E 001°03'0 0.0
2019-Jun-08 17:20N 49°27' E 001°03'0 0.0
2019-Jun-08 16:56N 49°27' E 001°03'0 0.0
2019-Jun-08 16:26N 49°27' E 001°03'0 0.0
2019-Jun-08 15:50N 49°27' E 001°03'0 0.0
2019-Jun-08 15:20N 49°27' E 001°03'0 0.0
2019-Jun-08 14:50N 49°27' E 001°03'0 0.0
2019-Jun-08 14:20N 49°27' E 001°03'0 0.0
2019-Jun-08 13:44N 49°27' E 001°03'0 0.0
2019-Jun-08 13:23N 49°27' E 001°03'0 0.0
2019-Jun-08 12:50N 49°27' E 001°03'0 0.0
2019-Jun-08 12:29N 49°27' E 001°03'0 0.0
2019-Jun-08 11:56N 49°27' E 001°03'0 0.0
2019-Jun-08 11:14N 49°27' E 001°03'0 0.0
2019-Jun-08 10:59N 49°27' E 001°03'0 0.0
2019-Jun-08 10:26N 49°27' E 001°03'0 0.0
2019-Jun-08 09:59N 49°27' E 001°03'0 0.0
2019-Jun-08 09:20N 49°27' E 001°03'0 0.0
2019-Jun-08 08:38N 49°27' E 001°03'0 0.0
2019-Jun-08 08:29N 49°27' E 001°03'0 0.0
2019-Jun-08 07:56N 49°27' E 001°03'0 0.0
2019-Jun-08 07:14N 49°27' E 001°03'0 0.0
2019-Jun-08 06:47N 49°27' E 001°03'0 0.0
2019-Jun-08 05:56N 49°27' E 001°03'0 0.0
2019-Jun-08 05:26N 49°27' E 001°03'0 0.0
2019-Jun-08 04:50N 49°27' E 001°03'0 0.0
2019-Jun-08 04:23N 49°27' E 001°03'0 0.0
2019-Jun-08 03:11N 49°27' E 001°03'0 0.0
2019-Jun-08 03:00N 49°27' E 001°03'0 0.0
2019-Jun-08 02:02N 49°27' E 001°03'0 0.0
2019-Jun-08 01:53N 49°27' E 001°03'0 0.0
2019-Jun-08 01:26N 49°27' E 001°03'0 0.0
2019-Jun-08 00:44N 49°27' E 001°03'0 0.0
2019-Jun-08 00:20N 49°27' E 001°03'0 0.0
2019-Jun-07 23:56N 49°27' E 001°03'0 0.0
2019-Jun-07 23:20N 49°27' E 001°03'0 0.0
2019-Jun-07 22:53N 49°27' E 001°03'0 0.0
2019-Jun-07 22:20N 49°27' E 001°03'0 0.0
2019-Jun-07 21:59N 49°27' E 001°03'0 0.0
2019-Jun-07 21:17N 49°27' E 001°03'0 0.0
2019-Jun-07 20:44N 49°27' E 001°03'0 0.0
2019-Jun-07 20:08N 49°27' E 001°03'0 0.0
2019-Jun-07 19:56N 49°27' E 001°03'0 0.0
2019-Jun-07 19:29N 49°27' E 001°03'0 0.0
2019-Jun-07 18:53N 49°27' E 001°03'0 0.0
2019-Jun-07 18:20N 49°27' E 001°03'0 0.0
2019-Jun-07 17:11N 49°27' E 001°03'0 0.0
2019-Jun-07 16:56N 49°27' E 001°03'0 0.0
2019-Jun-07 16:14N 49°27' E 001°03'0 0.0
2019-Jun-07 15:56N 49°27' E 001°03'0 0.0
2019-Jun-07 15:20N 49°27' E 001°03'0 0.0
2019-Jun-07 14:09N 49°27' E 001°03'0 0.0
2019-Jun-07 13:44N 49°27' E 001°03'0 0.0
2019-Jun-07 13:23N 49°27' E 001°03'0 0.0
2019-Jun-07 12:57N 49°27' E 001°03'0 0.0
2019-Jun-07 12:18N 49°27' E 001°03'0 0.0
2019-Jun-07 11:40N 49°27' E 001°03'0 0.0
2019-Jun-07 11:30N 49°27' E 001°03'0 0.0
2019-Jun-07 11:00N 49°27' E 001°03'0 0.0
2019-Jun-07 10:25N 49°27' E 001°03'0 0.0
2019-Jun-07 09:53N 49°27' E 001°03'0 0.0
2019-Jun-07 09:30N 49°27' E 001°03'0 0.0
2019-Jun-07 08:22N 49°27' E 001°03'0 0.0
2019-Jun-07 07:54N 49°27' E 001°03'0 0.0
2019-Jun-07 07:29N 49°27' E 001°03'0 0.0
2019-Jun-07 06:54N 49°27' E 001°03'0 0.0
2019-Jun-07 06:17N 49°27' E 001°03'0 0.0
2019-Jun-07 05:59N 49°27' E 001°03'0 0.0
2019-Jun-07 05:29N 49°27' E 001°03'0 0.0
2019-Jun-07 04:44N 49°27' E 001°03'0 0.0
2019-Jun-07 04:29N 49°27' E 001°03'0 0.0
2019-Jun-07 03:59N 49°27' E 001°03'0 0.0
2019-Jun-07 03:19N 49°27' E 001°03'0 0.0
2019-Jun-07 02:48N 49°27' E 001°03'0 0.0
2019-Jun-07 02:23N 49°27' E 001°03'0 0.0
2019-Jun-07 01:48N 49°27' E 001°03'0 0.0
2019-Jun-07 01:28N 49°27' E 001°03'0 0.0
2019-Jun-07 00:51N 49°27' E 001°03'0 0.0
2019-Jun-07 00:08N 49°27' E 001°03'0 0.0
2019-Jun-06 23:43N 49°27' E 001°03'0 0.0
2019-Jun-06 22:56N 49°27' E 001°03'0 0.0
2019-Jun-06 22:28N 49°27' E 001°03'0 0.0
2019-Jun-06 21:12N 49°27' E 001°03'0 0.0
2019-Jun-06 20:52N 49°27' E 001°03'0 0.0
2019-Jun-06 20:17N 49°27' E 001°03'0 0.0
2019-Jun-06 19:57N 49°27' E 001°03'0 0.0
2019-Jun-06 18:57N 49°27' E 001°03'0 0.0
2019-Jun-06 18:12N 49°27' E 001°03'0 0.0
2019-Jun-06 17:22N 49°27' E 001°03'0 0.0
2019-Jun-06 16:01N 49°27' E 001°03'0 0.0
2019-Jun-06 15:46N 49°27' E 001°03'0 0.0
2019-Jun-06 15:29N 49°27' E 001°03'  

Dump ship's entire track history